Skip Navigation Links Skip Navigation LinksHome page > Weather > Archival weather report

Archival weather report

Chicago O'Hare Intl, Chicago

For information only: do not use for flight planning or navigation.
Latest weather
Observation time Saturday, April 20, 2019 1:51 PM CDT
Local time Tuesday, September 17, 2019 2:05 AM CDT
Flight conditions Visual Meteorological Conditions
Winds
Wind direction North-Northeast (20°)
Wind speed 20 mph
Wind gusting to 28 mph
Peak wind speed 32 mph, 1:19 PM
Peak wind direction North-Northeast (20°)
Visibility 10 mi.
Sky condition
Ceiling unlimited
Cloud layer few clouds 15,000 ft.
Temperature 63°F
Dewpoint 10°F
Altimeter 29.82 in.Hg
Derived measurements
Relative humidity 12%
Density altitude 423 ft.
Sea-level pressure 29.82 in.Hg
Remarks
Automated weather observing station with precipitation discriminator.
METAR KORD 201851Z 02017G24KT 10SM FEW150 17/M12 A2982 RMK AO2 PK WND 02028/1819 SLP098 T01721122

Find weather

Site navigation


Skip Navigation Links

Place info

Page info

PayPal - The safer, easier way to pay online!

Return home.

Copyright ©2019 Inner Drive Technology. Purveyors of fine, hand-crafted computer software. Page printed 2019-09-17T07:05:13 UTC.